Monahans, TX

8:55 PM CDT on July 24, 2016 (GMT -0500)
Monahans - JBurton Inc. - World Headquarters | | Change Station

Elev 2625 ft 31.59 °N, 102.88 °W | Updated 2 seconds ago

Clear
Clear
93.4 °F
Feels Like 94 °F
N
0.0
Wind Variable Wind from South
Gusts 0.0 mph

Today
High -- | Low -- °F
--% Chance of Precip.
Yesterday
High -- | Low -- °F
Precip. -- in
Pressure 29.73 in
Visibility 10.0 miles
Clouds Clear
Heat Index 94 °F
Dew Point 62 °F
Humidity 36%
Rainfall 0.00 in
Snow Depth Not available.
7:02 AM 8:52 PM
Waning Gibbous, 71% visible
METAR KINK 250153Z AUTO 11010KT 10SM CLR 36/12 A2990 RMK AO2 SLP068 T03560122 TSNO
Pressure 29.73 in
Visibility 10.0 miles
Clouds Clear
Heat Index 94 °F
Dew Point 62 °F
Humidity 36%
Rainfall 0.00 in
Snow Depth Not available.
7:02 AM 8:52 PM
Waning Gibbous, 71% visible
METAR KINK 250153Z AUTO 11010KT 10SM CLR 36/12 A2990 RMK AO2 SLP068 T03560122 TSNO

10-Day Weather Forecast

Almanac

Astronomy

Jul. 24, 2016 Rise Set
Actual Time
Civil Twilight
Nautical Twilight
Astronomical Twilight
Moon
Length of Visible Light
Length of Day
Tomorrow will be .
, % of the Moon is Illuminated

Today's Extremes

State Highs State Lows

Community

WunderPhotos

Upload Photos

1,927,233 photos uploaded!

WunderBlog® & News

Nearby

Air Quality

  Air Quality AQ Index Pollutant
Not available.

Snow Depth

Station Depth Elevation

Earthquake Activity

City Distance Mag. Time & Date
Minimum magnitude displayed is 2.5.

Coastal Water Temperatures

Place Temperature

Stations

Nearby Weather Stations

Station Location Temp. Windchill Dew Point Humidity Wind Precip. Elev Updated Type
                   

Watches & Warnings

There are currently no watches in effect.